sensor_id;sensor_type;location;lat;lon;timestamp;temperature;humidity
20483;DHT22;10400;53.198;6.592;2023-02-02T00:02:03;5.60;99.90
20483;DHT22;10400;53.198;6.592;2023-02-02T00:04:31;5.60;99.90
20483;DHT22;10400;53.198;6.592;2023-02-02T00:06:58;5.60;99.90
20483;DHT22;10400;53.198;6.592;2023-02-02T00:09:29;5.60;99.90
20483;DHT22;10400;53.198;6.592;2023-02-02T00:11:56;5.60;99.90
20483;DHT22;10400;53.198;6.592;2023-02-02T00:14:22;5.60;99.90
20483;DHT22;10400;53.198;6.592;2023-02-02T00:16:49;5.50;99.90
20483;DHT22;10400;53.198;6.592;2023-02-02T00:19:20;5.60;99.90
20483;DHT22;10400;53.198;6.592;2023-02-02T00:21:46;5.50;99.90
20483;DHT22;10400;53.198;6.592;2023-02-02T00:24:14;5.50;99.90
20483;DHT22;10400;53.198;6.592;2023-02-02T00:26:42;5.50;99.90
20483;DHT22;10400;53.198;6.592;2023-02-02T00:29:17;5.60;99.90
20483;DHT22;10400;53.198;6.592;2023-02-02T00:31:43;5.50;99.90
20483;DHT22;10400;53.198;6.592;2023-02-02T00:34:11;5.60;99.90
20483;DHT22;10400;53.198;6.592;2023-02-02T00:36:36;5.60;99.90
20483;DHT22;10400;53.198;6.592;2023-02-02T00:39:02;5.70;99.90
20483;DHT22;10400;53.198;6.592;2023-02-02T00:41:28;5.60;99.90
20483;DHT22;10400;53.198;6.592;2023-02-02T00:43:53;5.60;99.90
20483;DHT22;10400;53.198;6.592;2023-02-02T00:46:38;5.70;99.90
20483;DHT22;10400;53.198;6.592;2023-02-02T00:49:04;5.60;99.90
20483;DHT22;10400;53.198;6.592;2023-02-02T00:51:30;5.70;99.90
20483;DHT22;10400;53.198;6.592;2023-02-02T00:53:56;5.70;99.90
20483;DHT22;10400;53.198;6.592;2023-02-02T00:56:21;5.70;99.90
20483;DHT22;10400;53.198;6.592;2023-02-02T00:58:50;5.70;99.90
20483;DHT22;10400;53.198;6.592;2023-02-02T01:01:17;5.70;99.90
20483;DHT22;10400;53.198;6.592;2023-02-02T01:03:43;5.80;99.90
20483;DHT22;10400;53.198;6.592;2023-02-02T01:06:09;5.80;99.90
20483;DHT22;10400;53.198;6.592;2023-02-02T01:08:35;5.80;99.90
20483;DHT22;10400;53.198;6.592;2023-02-02T01:11:00;5.80;99.90
20483;DHT22;10400;53.198;6.592;2023-02-02T01:13:26;5.80;99.90
20483;DHT22;10400;53.198;6.592;2023-02-02T01:15:56;5.90;99.90
20483;DHT22;10400;53.198;6.592;2023-02-02T01:18:21;5.90;99.90
20483;DHT22;10400;53.198;6.592;2023-02-02T01:20:47;5.90;99.90
20483;DHT22;10400;53.198;6.592;2023-02-02T01:23:20;5.90;99.90
20483;DHT22;10400;53.198;6.592;2023-02-02T01:25:55;6.00;99.90
20483;DHT22;10400;53.198;6.592;2023-02-02T01:28:21;6.00;99.90
20483;DHT22;10400;53.198;6.592;2023-02-02T01:30:47;6.00;99.90
20483;DHT22;10400;53.198;6.592;2023-02-02T01:33:13;6.00;99.90
20483;DHT22;10400;53.198;6.592;2023-02-02T01:35:53;6.00;99.90
20483;DHT22;10400;53.198;6.592;2023-02-02T01:38:20;6.00;99.90
20483;DHT22;10400;53.198;6.592;2023-02-02T01:40:50;6.00;99.90
20483;DHT22;10400;53.198;6.592;2023-02-02T01:43:25;6.10;99.90
20483;DHT22;10400;53.198;6.592;2023-02-02T01:45:52;6.10;99.90
20483;DHT22;10400;53.198;6.592;2023-02-02T01:48:20;6.10;99.90
20483;DHT22;10400;53.198;6.592;2023-02-02T01:50:47;6.10;99.90
20483;DHT22;10400;53.198;6.592;2023-02-02T01:53:14;6.10;99.90
20483;DHT22;10400;53.198;6.592;2023-02-02T01:55:40;6.10;99.90
20483;DHT22;10400;53.198;6.592;2023-02-02T02:00:35;6.10;99.90
20483;DHT22;10400;53.198;6.592;2023-02-02T02:03:09;6.10;99.90
20483;DHT22;10400;53.198;6.592;2023-02-02T02:05:41;6.10;99.90
20483;DHT22;10400;53.198;6.592;2023-02-02T02:10:50;6.10;99.90
20483;DHT22;10400;53.198;6.592;2023-02-02T02:13:16;6.10;99.90
20483;DHT22;10400;53.198;6.592;2023-02-02T02:15:59;6.10;99.90
20483;DHT22;10400;53.198;6.592;2023-02-02T02:22:04;6.10;99.90
20483;DHT22;10400;53.198;6.592;2023-02-02T02:36:50;6.10;99.90
20483;DHT22;10400;53.198;6.592;2023-02-02T02:39:33;6.10;99.90
20483;DHT22;10400;53.198;6.592;2023-02-02T02:42:06;6.10;99.90
20483;DHT22;10400;53.198;6.592;2023-02-02T02:44:34;6.20;99.90
20483;DHT22;10400;53.198;6.592;2023-02-02T02:47:01;6.20;99.90
20483;DHT22;10400;53.198;6.592;2023-02-02T02:49:27;6.20;99.90
20483;DHT22;10400;53.198;6.592;2023-02-02T02:51:54;6.10;99.90
20483;DHT22;10400;53.198;6.592;2023-02-02T02:54:21;6.20;99.90
20483;DHT22;10400;53.198;6.592;2023-02-02T02:59:48;6.30;99.90
20483;DHT22;10400;53.198;6.592;2023-02-02T03:08:06;6.30;99.90
20483;DHT22;10400;53.198;6.592;2023-02-02T03:10:34;6.30;99.90
20483;DHT22;10400;53.198;6.592;2023-02-02T03:13:00;6.30;99.90
20483;DHT22;10400;53.198;6.592;2023-02-02T03:15:30;6.40;99.90
20483;DHT22;10400;53.198;6.592;2023-02-02T03:17:56;6.40;99.90
20483;DHT22;10400;53.198;6.592;2023-02-02T03:20:22;6.40;99.90
20483;DHT22;10400;53.198;6.592;2023-02-02T03:22:48;6.50;99.90
20483;DHT22;10400;53.198;6.592;2023-02-02T03:25:13;6.50;99.90
20483;DHT22;10400;53.198;6.592;2023-02-02T03:27:40;6.50;99.90
20483;DHT22;10400;53.198;6.592;2023-02-02T03:30:08;6.60;99.90
20483;DHT22;10400;53.198;6.592;2023-02-02T03:32:35;6.70;99.90
20483;DHT22;10400;53.198;6.592;2023-02-02T03:35:01;6.70;99.90
20483;DHT22;10400;53.198;6.592;2023-02-02T03:37:26;6.70;99.90
20483;DHT22;10400;53.198;6.592;2023-02-02T03:39:52;6.80;99.90
20483;DHT22;10400;53.198;6.592;2023-02-02T03:42:18;6.80;99.90
20483;DHT22;10400;53.198;6.592;2023-02-02T03:44:43;6.80;99.90
20483;DHT22;10400;53.198;6.592;2023-02-02T03:47:09;6.80;99.90
20483;DHT22;10400;53.198;6.592;2023-02-02T03:49:34;6.80;99.90
20483;DHT22;10400;53.198;6.592;2023-02-02T03:52:00;6.80;99.90
20483;DHT22;10400;53.198;6.592;2023-02-02T03:54:28;6.80;99.90
20483;DHT22;10400;53.198;6.592;2023-02-02T03:56:54;6.70;99.90
20483;DHT22;10400;53.198;6.592;2023-02-02T03:59:19;6.80;99.90
20483;DHT22;10400;53.198;6.592;2023-02-02T04:01:45;6.80;99.90
20483;DHT22;10400;53.198;6.592;2023-02-02T04:04:10;6.70;99.90
20483;DHT22;10400;53.198;6.592;2023-02-02T04:06:36;6.60;99.90
20483;DHT22;10400;53.198;6.592;2023-02-02T04:09:02;6.60;99.90
20483;DHT22;10400;53.198;6.592;2023-02-02T04:11:27;6.60;99.90
20483;DHT22;10400;53.198;6.592;2023-02-02T04:13:53;6.60;99.90
20483;DHT22;10400;53.198;6.592;2023-02-02T04:16:19;6.70;99.90
20483;DHT22;10400;53.198;6.592;2023-02-02T04:18:44;6.60;99.90
20483;DHT22;10400;53.198;6.592;2023-02-02T04:21:10;6.60;99.90
20483;DHT22;10400;53.198;6.592;2023-02-02T04:23:36;6.60;99.90
20483;DHT22;10400;53.198;6.592;2023-02-02T04:26:02;6.60;99.90
20483;DHT22;10400;53.198;6.592;2023-02-02T04:28:28;6.60;99.90
20483;DHT22;10400;53.198;6.592;2023-02-02T04:30:54;6.50;99.90
20483;DHT22;10400;53.198;6.592;2023-02-02T04:33:21;6.60;99.90
20483;DHT22;10400;53.198;6.592;2023-02-02T04:35:47;6.50;99.90
20483;DHT22;10400;53.198;6.592;2023-02-02T04:38:13;6.50;99.90
20483;DHT22;10400;53.198;6.592;2023-02-02T04:40:43;6.50;99.90
20483;DHT22;10400;53.198;6.592;2023-02-02T04:43:10;6.50;99.90
20483;DHT22;10400;53.198;6.592;2023-02-02T04:45:36;6.50;99.90
20483;DHT22;10400;53.198;6.592;2023-02-02T04:48:02;6.50;99.90
20483;DHT22;10400;53.198;6.592;2023-02-02T04:50:28;6.50;99.90
20483;DHT22;10400;53.198;6.592;2023-02-02T04:52:54;6.50;99.90
20483;DHT22;10400;53.198;6.592;2023-02-02T04:55:23;6.50;99.90
20483;DHT22;10400;53.198;6.592;2023-02-02T04:57:49;6.50;99.90
20483;DHT22;10400;53.198;6.592;2023-02-02T05:00:15;6.50;99.90
20483;DHT22;10400;53.198;6.592;2023-02-02T05:02:41;6.40;99.90
20483;DHT22;10400;53.198;6.592;2023-02-02T05:05:10;6.40;99.90
20483;DHT22;10400;53.198;6.592;2023-02-02T05:07:36;6.40;99.90
20483;DHT22;10400;53.198;6.592;2023-02-02T05:10:03;6.40;99.90
20483;DHT22;10400;53.198;6.592;2023-02-02T05:12:29;6.40;99.90
20483;DHT22;10400;53.198;6.592;2023-02-02T05:14:54;6.40;99.90
20483;DHT22;10400;53.198;6.592;2023-02-02T05:17:20;6.30;99.90
20483;DHT22;10400;53.198;6.592;2023-02-02T05:19:46;6.30;99.90
20483;DHT22;10400;53.198;6.592;2023-02-02T05:22:11;6.30;99.90
20483;DHT22;10400;53.198;6.592;2023-02-02T05:24:37;6.30;99.90
20483;DHT22;10400;53.198;6.592;2023-02-02T05:27:03;6.30;99.90
20483;DHT22;10400;53.198;6.592;2023-02-02T05:29:29;6.20;99.90
20483;DHT22;10400;53.198;6.592;2023-02-02T05:31:58;6.20;99.90
20483;DHT22;10400;53.198;6.592;2023-02-02T05:34:23;6.30;99.90
20483;DHT22;10400;53.198;6.592;2023-02-02T05:36:50;6.30;99.90
20483;DHT22;10400;53.198;6.592;2023-02-02T05:39:17;6.20;99.90
20483;DHT22;10400;53.198;6.592;2023-02-02T05:41:42;6.30;99.90
20483;DHT22;10400;53.198;6.592;2023-02-02T05:44:11;6.30;99.90
20483;DHT22;10400;53.198;6.592;2023-02-02T05:46:37;6.20;99.90
20483;DHT22;10400;53.198;6.592;2023-02-02T05:49:03;6.20;99.90
20483;DHT22;10400;53.198;6.592;2023-02-02T05:51:37;6.20;99.90
20483;DHT22;10400;53.198;6.592;2023-02-02T05:54:03;6.20;99.90
20483;DHT22;10400;53.198;6.592;2023-02-02T05:56:29;6.20;99.90
20483;DHT22;10400;53.198;6.592;2023-02-02T05:58:55;6.20;99.90
20483;DHT22;10400;53.198;6.592;2023-02-02T06:01:20;6.20;99.90
20483;DHT22;10400;53.198;6.592;2023-02-02T06:03:46;6.20;99.90
20483;DHT22;10400;53.198;6.592;2023-02-02T06:06:12;6.20;99.90
20483;DHT22;10400;53.198;6.592;2023-02-02T06:08:38;6.10;99.90
20483;DHT22;10400;53.198;6.592;2023-02-02T06:11:14;6.20;99.90
20483;DHT22;10400;53.198;6.592;2023-02-02T06:13:40;6.20;99.90
20483;DHT22;10400;53.198;6.592;2023-02-02T06:16:07;6.20;99.90
20483;DHT22;10400;53.198;6.592;2023-02-02T06:18:34;6.20;99.90
20483;DHT22;10400;53.198;6.592;2023-02-02T06:21:00;6.20;99.90
20483;DHT22;10400;53.198;6.592;2023-02-02T06:23:26;6.20;99.90
20483;DHT22;10400;53.198;6.592;2023-02-02T06:25:52;6.20;99.90
20483;DHT22;10400;53.198;6.592;2023-02-02T06:28:18;6.20;99.90
20483;DHT22;10400;53.198;6.592;2023-02-02T06:30:44;6.20;99.90
20483;DHT22;10400;53.198;6.592;2023-02-02T06:33:10;6.20;99.90
20483;DHT22;10400;53.198;6.592;2023-02-02T06:35:35;6.20;99.90
20483;DHT22;10400;53.198;6.592;2023-02-02T06:38:01;6.10;99.90
20483;DHT22;10400;53.198;6.592;2023-02-02T06:40:27;6.10;99.90
20483;DHT22;10400;53.198;6.592;2023-02-02T06:43:00;6.10;99.90
20483;DHT22;10400;53.198;6.592;2023-02-02T06:45:27;6.10;99.90
20483;DHT22;10400;53.198;6.592;2023-02-02T06:47:53;6.10;99.90
20483;DHT22;10400;53.198;6.592;2023-02-02T06:50:21;6.10;99.90
20483;DHT22;10400;53.198;6.592;2023-02-02T06:52:51;6.10;99.90
20483;DHT22;10400;53.198;6.592;2023-02-02T06:55:17;6.20;99.90
20483;DHT22;10400;53.198;6.592;2023-02-02T06:57:43;6.10;99.90
20483;DHT22;10400;53.198;6.592;2023-02-02T07:00:10;6.10;99.90
20483;DHT22;10400;53.198;6.592;2023-02-02T07:02:35;6.20;99.90
20483;DHT22;10400;53.198;6.592;2023-02-02T07:05:01;6.10;99.90
20483;DHT22;10400;53.198;6.592;2023-02-02T07:07:30;6.20;99.90
20483;DHT22;10400;53.198;6.592;2023-02-02T07:09:56;6.10;99.90
20483;DHT22;10400;53.198;6.592;2023-02-02T07:12:22;6.10;99.90
20483;DHT22;10400;53.198;6.592;2023-02-02T07:14:48;6.10;99.90
20483;DHT22;10400;53.198;6.592;2023-02-02T07:17:14;6.10;99.90
20483;DHT22;10400;53.198;6.592;2023-02-02T07:19:40;6.10;99.90
20483;DHT22;10400;53.198;6.592;2023-02-02T07:22:06;6.10;99.90
20483;DHT22;10400;53.198;6.592;2023-02-02T07:24:31;6.10;99.90
20483;DHT22;10400;53.198;6.592;2023-02-02T07:26:57;6.10;99.90
20483;DHT22;10400;53.198;6.592;2023-02-02T07:29:23;6.20;99.90
20483;DHT22;10400;53.198;6.592;2023-02-02T07:31:48;6.20;99.90
20483;DHT22;10400;53.198;6.592;2023-02-02T07:34:14;6.20;99.90
20483;DHT22;10400;53.198;6.592;2023-02-02T07:36:40;6.30;99.90
20483;DHT22;10400;53.198;6.592;2023-02-02T07:39:06;6.30;99.90
20483;DHT22;10400;53.198;6.592;2023-02-02T07:41:34;6.30;99.90
20483;DHT22;10400;53.198;6.592;2023-02-02T07:43:59;6.30;99.90
20483;DHT22;10400;53.198;6.592;2023-02-02T07:46:26;6.30;99.90
20483;DHT22;10400;53.198;6.592;2023-02-02T07:48:55;6.30;99.90
20483;DHT22;10400;53.198;6.592;2023-02-02T07:51:21;6.20;99.90
20483;DHT22;10400;53.198;6.592;2023-02-02T07:53:50;6.30;99.90
20483;DHT22;10400;53.198;6.592;2023-02-02T07:56:19;6.30;99.90
20483;DHT22;10400;53.198;6.592;2023-02-02T07:58:45;6.20;99.90
20483;DHT22;10400;53.198;6.592;2023-02-02T08:01:12;6.20;99.90
20483;DHT22;10400;53.198;6.592;2023-02-02T08:03:39;6.20;99.90
20483;DHT22;10400;53.198;6.592;2023-02-02T08:06:23;6.30;99.90
20483;DHT22;10400;53.198;6.592;2023-02-02T08:08:50;6.30;99.90
20483;DHT22;10400;53.198;6.592;2023-02-02T08:11:18;6.40;99.90
20483;DHT22;10400;53.198;6.592;2023-02-02T08:13:48;6.40;99.90
20483;DHT22;10400;53.198;6.592;2023-02-02T08:16:14;6.40;99.90
20483;DHT22;10400;53.198;6.592;2023-02-02T08:18:39;6.40;99.90
20483;DHT22;10400;53.198;6.592;2023-02-02T08:21:06;6.40;99.90
20483;DHT22;10400;53.198;6.592;2023-02-02T08:23:36;6.50;99.90
20483;DHT22;10400;53.198;6.592;2023-02-02T08:26:15;6.60;99.90
20483;DHT22;10400;53.198;6.592;2023-02-02T08:28:43;6.50;99.90
20483;DHT22;10400;53.198;6.592;2023-02-02T08:31:16;6.60;99.90
20483;DHT22;10400;53.198;6.592;2023-02-02T08:33:42;6.50;99.90
20483;DHT22;10400;53.198;6.592;2023-02-02T08:36:18;6.50;99.90
20483;DHT22;10400;53.198;6.592;2023-02-02T08:38:44;6.50;99.90
20483;DHT22;10400;53.198;6.592;2023-02-02T08:41:13;6.50;99.90
20483;DHT22;10400;53.198;6.592;2023-02-02T08:43:40;6.50;99.90
20483;DHT22;10400;53.198;6.592;2023-02-02T08:46:06;6.50;99.90
20483;DHT22;10400;53.198;6.592;2023-02-02T08:48:33;6.50;99.90
20483;DHT22;10400;53.198;6.592;2023-02-02T08:51:00;6.60;99.90
20483;DHT22;10400;53.198;6.592;2023-02-02T08:53:26;6.60;99.90
20483;DHT22;10400;53.198;6.592;2023-02-02T08:56:06;6.70;99.90
20483;DHT22;10400;53.198;6.592;2023-02-02T08:58:33;6.60;99.90
20483;DHT22;10400;53.198;6.592;2023-02-02T09:01:07;6.60;99.90
20483;DHT22;10400;53.198;6.592;2023-02-02T09:03:33;6.70;99.90
20483;DHT22;10400;53.198;6.592;2023-02-02T09:06:07;6.80;99.90
20483;DHT22;10400;53.198;6.592;2023-02-02T09:08:33;6.80;99.90
20483;DHT22;10400;53.198;6.592;2023-02-02T09:11:13;6.80;99.90
20483;DHT22;10400;53.198;6.592;2023-02-02T09:13:41;6.80;99.90
20483;DHT22;10400;53.198;6.592;2023-02-02T09:16:09;6.80;99.90
20483;DHT22;10400;53.198;6.592;2023-02-02T09:18:35;6.80;99.90
20483;DHT22;10400;53.198;6.592;2023-02-02T09:21:04;6.90;99.90
20483;DHT22;10400;53.198;6.592;2023-02-02T09:23:31;7.00;99.90
20483;DHT22;10400;53.198;6.592;2023-02-02T09:28:40;7.00;99.90
20483;DHT22;10400;53.198;6.592;2023-02-02T09:31:07;7.10;99.90
20483;DHT22;10400;53.198;6.592;2023-02-02T09:33:32;7.10;99.90
20483;DHT22;10400;53.198;6.592;2023-02-02T09:36:24;7.10;99.90
20483;DHT22;10400;53.198;6.592;2023-02-02T09:38:51;7.10;99.90
20483;DHT22;10400;53.198;6.592;2023-02-02T09:49:23;7.20;99.90
20483;DHT22;10400;53.198;6.592;2023-02-02T09:51:56;7.20;99.90
20483;DHT22;10400;53.198;6.592;2023-02-02T09:54:27;7.20;99.90
20483;DHT22;10400;53.198;6.592;2023-02-02T09:56:57;7.20;99.90
20483;DHT22;10400;53.198;6.592;2023-02-02T09:59:29;7.30;99.90
20483;DHT22;10400;53.198;6.592;2023-02-02T10:02:03;7.40;99.90
20483;DHT22;10400;53.198;6.592;2023-02-02T10:04:38;7.40;99.90
20483;DHT22;10400;53.198;6.592;2023-02-02T10:07:24;7.40;99.90
20483;DHT22;10400;53.198;6.592;2023-02-02T10:10:01;7.40;99.90
20483;DHT22;10400;53.198;6.592;2023-02-02T10:18:37;7.60;99.90
20483;DHT22;10400;53.198;6.592;2023-02-02T10:21:11;7.60;99.90
20483;DHT22;10400;53.198;6.592;2023-02-02T10:23:41;7.60;99.90
20483;DHT22;10400;53.198;6.592;2023-02-02T10:26:29;7.60;99.90
20483;DHT22;10400;53.198;6.592;2023-02-02T10:34:09;7.70;99.90
20483;DHT22;10400;53.198;6.592;2023-02-02T10:41:58;7.70;99.90
20483;DHT22;10400;53.198;6.592;2023-02-02T10:44:36;7.80;99.90
20483;DHT22;10400;53.198;6.592;2023-02-02T10:47:09;7.80;99.90
20483;DHT22;10400;53.198;6.592;2023-02-02T10:49:39;7.80;99.90
20483;DHT22;10400;53.198;6.592;2023-02-02T11:00:20;7.90;99.90
20483;DHT22;10400;53.198;6.592;2023-02-02T11:02:47;7.90;99.90
20483;DHT22;10400;53.198;6.592;2023-02-02T11:05:20;7.80;99.90
20483;DHT22;10400;53.198;6.592;2023-02-02T11:08:15;7.80;99.90
20483;DHT22;10400;53.198;6.592;2023-02-02T11:10:43;7.80;99.90
20483;DHT22;10400;53.198;6.592;2023-02-02T11:13:15;7.90;99.90
20483;DHT22;10400;53.198;6.592;2023-02-02T11:15:41;7.90;99.90
20483;DHT22;10400;53.198;6.592;2023-02-02T11:18:13;8.00;99.90
20483;DHT22;10400;53.198;6.592;2023-02-02T11:20:40;7.90;99.90
20483;DHT22;10400;53.198;6.592;2023-02-02T11:23:06;8.00;99.90
20483;DHT22;10400;53.198;6.592;2023-02-02T11:25:37;8.10;99.90
20483;DHT22;10400;53.198;6.592;2023-02-02T11:28:20;8.00;99.90
20483;DHT22;10400;53.198;6.592;2023-02-02T11:30:49;8.10;99.90
20483;DHT22;10400;53.198;6.592;2023-02-02T11:33:34;8.00;99.90
20483;DHT22;10400;53.198;6.592;2023-02-02T11:36:05;7.90;99.90
20483;DHT22;10400;53.198;6.592;2023-02-02T11:38:31;8.10;99.90
20483;DHT22;10400;53.198;6.592;2023-02-02T11:41:02;8.10;99.90
20483;DHT22;10400;53.198;6.592;2023-02-02T11:43:32;8.10;99.90
20483;DHT22;10400;53.198;6.592;2023-02-02T11:46:02;8.10;99.90
20483;DHT22;10400;53.198;6.592;2023-02-02T11:48:37;8.10;99.90
20483;DHT22;10400;53.198;6.592;2023-02-02T11:51:04;8.10;99.90
20483;DHT22;10400;53.198;6.592;2023-02-02T11:53:33;8.10;99.90
20483;DHT22;10400;53.198;6.592;2023-02-02T11:56:05;8.20;99.90
20483;DHT22;10400;53.198;6.592;2023-02-02T11:58:50;8.10;99.90
20483;DHT22;10400;53.198;6.592;2023-02-02T12:03:54;8.10;99.90
20483;DHT22;10400;53.198;6.592;2023-02-02T12:06:26;8.20;99.90
20483;DHT22;10400;53.198;6.592;2023-02-02T12:08:57;8.20;99.90
20483;DHT22;10400;53.198;6.592;2023-02-02T12:11:43;8.20;99.90
20483;DHT22;10400;53.198;6.592;2023-02-02T12:14:45;8.20;99.90
20483;DHT22;10400;53.198;6.592;2023-02-02T12:33:30;8.20;99.90
20483;DHT22;10400;53.198;6.592;2023-02-02T12:47:20;8.10;99.90
20483;DHT22;10400;53.198;6.592;2023-02-02T12:50:02;8.10;99.90
20483;DHT22;10400;53.198;6.592;2023-02-02T12:52:52;8.10;99.90
20483;DHT22;10400;53.198;6.592;2023-02-02T12:58:04;8.20;99.90
20483;DHT22;10400;53.198;6.592;2023-02-02T13:04:01;8.30;99.90
20483;DHT22;10400;53.198;6.592;2023-02-02T13:12:13;8.10;99.90
20483;DHT22;10400;53.198;6.592;2023-02-02T13:14:52;8.10;99.90
20483;DHT22;10400;53.198;6.592;2023-02-02T13:17:55;8.10;99.90
20483;DHT22;10400;53.198;6.592;2023-02-02T13:22:59;8.20;99.90
20483;DHT22;10400;53.198;6.592;2023-02-02T13:28:03;8.20;99.90
20483;DHT22;10400;53.198;6.592;2023-02-02T13:30:33;8.10;99.90
20483;DHT22;10400;53.198;6.592;2023-02-02T13:33:10;8.10;99.90
20483;DHT22;10400;53.198;6.592;2023-02-02T13:35:48;8.10;99.90
20483;DHT22;10400;53.198;6.592;2023-02-02T13:38:22;8.10;99.90
20483;DHT22;10400;53.198;6.592;2023-02-02T13:41:04;8.10;99.90
20483;DHT22;10400;53.198;6.592;2023-02-02T13:50:02;8.20;99.90
20483;DHT22;10400;53.198;6.592;2023-02-02T13:56:05;8.20;99.90
20483;DHT22;10400;53.198;6.592;2023-02-02T14:01:14;8.10;99.90
20483;DHT22;10400;53.198;6.592;2023-02-02T14:03:52;8.10;99.90
20483;DHT22;10400;53.198;6.592;2023-02-02T14:06:21;8.10;99.90
20483;DHT22;10400;53.198;6.592;2023-02-02T14:08:57;8.10;99.90
20483;DHT22;10400;53.198;6.592;2023-02-02T14:11:37;8.00;99.90
20483;DHT22;10400;53.198;6.592;2023-02-02T14:16:54;8.10;99.90
20483;DHT22;10400;53.198;6.592;2023-02-02T14:26:56;8.10;99.90
20483;DHT22;10400;53.198;6.592;2023-02-02T14:45:40;8.10;99.90
20483;DHT22;10400;53.198;6.592;2023-02-02T14:58:28;7.90;99.90
20483;DHT22;10400;53.198;6.592;2023-02-02T15:19:43;8.10;99.90
20483;DHT22;10400;53.198;6.592;2023-02-02T15:22:34;8.00;99.90
20483;DHT22;10400;53.198;6.592;2023-02-02T15:25:05;8.10;99.90
20483;DHT22;10400;53.198;6.592;2023-02-02T15:27:36;8.00;99.90
20483;DHT22;10400;53.198;6.592;2023-02-02T15:30:07;8.00;99.90
20483;DHT22;10400;53.198;6.592;2023-02-02T15:32:34;8.00;99.90
20483;DHT22;10400;53.198;6.592;2023-02-02T15:35:03;8.10;99.90
20483;DHT22;10400;53.198;6.592;2023-02-02T15:37:33;8.10;99.90
20483;DHT22;10400;53.198;6.592;2023-02-02T15:40:12;8.10;99.90
20483;DHT22;10400;53.198;6.592;2023-02-02T15:42:43;8.10;99.90
20483;DHT22;10400;53.198;6.592;2023-02-02T15:48:25;8.20;99.90
20483;DHT22;10400;53.198;6.592;2023-02-02T15:50:56;8.20;99.90
20483;DHT22;10400;53.198;6.592;2023-02-02T15:55:54;8.20;99.90
20483;DHT22;10400;53.198;6.592;2023-02-02T15:58:31;8.30;99.90
20483;DHT22;10400;53.198;6.592;2023-02-02T16:01:19;8.30;99.90
20483;DHT22;10400;53.198;6.592;2023-02-02T16:04:39;8.20;99.90
20483;DHT22;10400;53.198;6.592;2023-02-02T16:06:45;8.30;99.90
20483;DHT22;10400;53.198;6.592;2023-02-02T16:09:32;8.30;99.90
20483;DHT22;10400;53.198;6.592;2023-02-02T16:11:59;8.30;99.90
20483;DHT22;10400;53.198;6.592;2023-02-02T16:14:26;8.30;99.90
20483;DHT22;10400;53.198;6.592;2023-02-02T16:16:52;8.30;99.90
20483;DHT22;10400;53.198;6.592;2023-02-02T16:19:19;8.30;99.90
20483;DHT22;10400;53.198;6.592;2023-02-02T16:21:50;8.30;99.90
20483;DHT22;10400;53.198;6.592;2023-02-02T16:24:22;8.30;99.90
20483;DHT22;10400;53.198;6.592;2023-02-02T16:26:51;8.20;99.90
20483;DHT22;10400;53.198;6.592;2023-02-02T16:29:17;8.30;99.90
20483;DHT22;10400;53.198;6.592;2023-02-02T16:31:45;8.20;99.90
20483;DHT22;10400;53.198;6.592;2023-02-02T16:37:46;8.20;99.90
20483;DHT22;10400;53.198;6.592;2023-02-02T16:39:54;8.30;99.90
20483;DHT22;10400;53.198;6.592;2023-02-02T16:42:25;8.20;99.90
20483;DHT22;10400;53.198;6.592;2023-02-02T16:44:58;8.20;99.90
20483;DHT22;10400;53.198;6.592;2023-02-02T16:49:52;8.20;99.90
20483;DHT22;10400;53.198;6.592;2023-02-02T16:52:20;8.20;99.90
20483;DHT22;10400;53.198;6.592;2023-02-02T16:54:55;8.20;99.90
20483;DHT22;10400;53.198;6.592;2023-02-02T16:57:32;8.20;99.90
20483;DHT22;10400;53.198;6.592;2023-02-02T17:00:00;8.20;99.90
20483;DHT22;10400;53.198;6.592;2023-02-02T17:02:35;8.30;99.90
20483;DHT22;10400;53.198;6.592;2023-02-02T17:05:23;8.20;99.90
20483;DHT22;10400;53.198;6.592;2023-02-02T17:08:01;8.30;99.90
20483;DHT22;10400;53.198;6.592;2023-02-02T17:10:35;8.20;99.90
20483;DHT22;10400;53.198;6.592;2023-02-02T17:13:15;8.20;99.90
20483;DHT22;10400;53.198;6.592;2023-02-02T17:15:51;8.20;99.90
20483;DHT22;10400;53.198;6.592;2023-02-02T17:18:17;8.20;99.90
20483;DHT22;10400;53.198;6.592;2023-02-02T17:20:42;8.20;99.90
20483;DHT22;10400;53.198;6.592;2023-02-02T17:23:15;8.20;99.90
20483;DHT22;10400;53.198;6.592;2023-02-02T17:25:42;8.20;99.90
20483;DHT22;10400;53.198;6.592;2023-02-02T17:28:13;8.20;99.90
20483;DHT22;10400;53.198;6.592;2023-02-02T17:30:44;8.20;99.90
20483;DHT22;10400;53.198;6.592;2023-02-02T17:33:15;8.20;99.90
20483;DHT22;10400;53.198;6.592;2023-02-02T17:35:42;8.30;99.90
20483;DHT22;10400;53.198;6.592;2023-02-02T17:38:08;8.30;99.90
20483;DHT22;10400;53.198;6.592;2023-02-02T17:40:34;8.30;99.90
20483;DHT22;10400;53.198;6.592;2023-02-02T17:43:00;8.20;99.90
20483;DHT22;10400;53.198;6.592;2023-02-02T17:45:34;8.20;99.90
20483;DHT22;10400;53.198;6.592;2023-02-02T17:48:01;8.30;99.90
20483;DHT22;10400;53.198;6.592;2023-02-02T17:50:28;8.30;99.90
20483;DHT22;10400;53.198;6.592;2023-02-02T17:52:55;8.20;99.90
20483;DHT22;10400;53.198;6.592;2023-02-02T17:55:31;8.20;99.90
20483;DHT22;10400;53.198;6.592;2023-02-02T17:57:57;8.30;99.90
20483;DHT22;10400;53.198;6.592;2023-02-02T18:00:25;8.30;99.90
20483;DHT22;10400;53.198;6.592;2023-02-02T18:05:31;8.20;99.90
20483;DHT22;10400;53.198;6.592;2023-02-02T18:07:57;8.30;99.90
20483;DHT22;10400;53.198;6.592;2023-02-02T18:10:22;8.30;99.90
20483;DHT22;10400;53.198;6.592;2023-02-02T18:12:50;8.30;99.90
20483;DHT22;10400;53.198;6.592;2023-02-02T18:15:16;8.20;99.90
20483;DHT22;10400;53.198;6.592;2023-02-02T18:17:41;8.20;99.90
20483;DHT22;10400;53.198;6.592;2023-02-02T18:20:08;8.20;99.90
20483;DHT22;10400;53.198;6.592;2023-02-02T18:22:34;8.20;99.90
20483;DHT22;10400;53.198;6.592;2023-02-02T18:25:00;8.20;99.90
20483;DHT22;10400;53.198;6.592;2023-02-02T18:27:28;8.30;99.90
20483;DHT22;10400;53.198;6.592;2023-02-02T18:29:54;8.20;99.90
20483;DHT22;10400;53.198;6.592;2023-02-02T18:32:19;8.30;99.90
20483;DHT22;10400;53.198;6.592;2023-02-02T18:34:45;8.30;99.90
20483;DHT22;10400;53.198;6.592;2023-02-02T18:37:16;8.30;99.90
20483;DHT22;10400;53.198;6.592;2023-02-02T18:39:42;8.30;99.90
20483;DHT22;10400;53.198;6.592;2023-02-02T18:42:09;8.30;99.90
20483;DHT22;10400;53.198;6.592;2023-02-02T18:44:35;8.30;99.90
20483;DHT22;10400;53.198;6.592;2023-02-02T18:47:03;8.30;99.90
20483;DHT22;10400;53.198;6.592;2023-02-02T18:49:29;8.30;99.90
20483;DHT22;10400;53.198;6.592;2023-02-02T18:51:55;8.30;99.90
20483;DHT22;10400;53.198;6.592;2023-02-02T18:54:20;8.30;99.90
20483;DHT22;10400;53.198;6.592;2023-02-02T18:56:46;8.30;99.90
20483;DHT22;10400;53.198;6.592;2023-02-02T18:59:12;8.40;99.90
20483;DHT22;10400;53.198;6.592;2023-02-02T19:01:38;8.30;99.90
20483;DHT22;10400;53.198;6.592;2023-02-02T19:04:04;8.40;99.90
20483;DHT22;10400;53.198;6.592;2023-02-02T19:06:30;8.30;99.90
20483;DHT22;10400;53.198;6.592;2023-02-02T19:09:14;8.30;99.90
20483;DHT22;10400;53.198;6.592;2023-02-02T19:11:48;8.40;99.90
20483;DHT22;10400;53.198;6.592;2023-02-02T19:14:17;8.40;99.90